Time;durP1;ratioP1;P1;durP2;ratioP2;P2;SDS_P1;SDS_P2;PMS_P1;PMS_P2;Temp;Humidity;BMP_temperature;BMP_pressure;BME280_temperature;BME280_humidity;BME280_pressure;Samples;Min_cycle;Max_cycle;Signal;HPM_P1;HPM_P2
2022/11/26 00:02:23;;;;;;;113.90;52.78;;;7.80;99.90;;;;;;4954582;28;20045;-75
2022/11/26 00:04:51;;;;;;;107.18;50.88;;;7.80;99.90;;;;;;4965573;28;20050;-76
2022/11/26 00:07:21;;;;;;;118.30;54.55;;;7.90;99.90;;;;;;4954474;28;20104;-78
2022/11/26 00:09:48;;;;;;;144.82;58.42;;;7.90;99.90;;;;;;4947755;28;20066;-76
2022/11/26 00:12:17;;;;;;;141.27;60.17;;;7.80;99.90;;;;;;4960674;28;20114;-78
2022/11/26 00:14:46;;;;;;;151.27;62.33;;;7.80;99.90;;;;;;4968997;28;20519;-75
2022/11/26 00:17:14;;;;;;;143.32;60.70;;;7.80;99.90;;;;;;4954554;28;20266;-78
2022/11/26 00:19:42;;;;;;;147.70;61.88;;;7.80;99.90;;;;;;4968558;28;20046;-77
2022/11/26 00:22:29;;;;;;;153.57;63.38;;;7.80;99.90;;;;;;4960186;28;20058;-78
2022/11/26 00:24:56;;;;;;;138.60;57.90;;;7.80;99.90;;;;;;4967758;28;20050;-77
2022/11/26 00:27:25;;;;;;;123.78;58.97;;;7.80;99.90;;;;;;4963159;28;20491;-77
2022/11/26 00:29:53;;;;;;;140.60;61.00;;;7.70;99.90;;;;;;4948409;28;20392;-78
2022/11/26 00:32:24;;;;;;;122.32;53.58;;;7.70;99.90;;;;;;4974249;28;20439;-78
2022/11/26 00:34:52;;;;;;;136.27;64.95;;;7.70;99.90;;;;;;4963594;28;20050;-76
2022/11/26 00:37:27;;;;;;;135.38;65.97;;;7.70;99.90;;;;;;4961740;28;20538;-77
2022/11/26 00:39:55;;;;;;;131.40;60.85;;;7.60;99.90;;;;;;4969001;28;20084;-78
2022/11/26 00:42:23;;;;;;;149.13;69.25;;;7.60;99.90;;;;;;4962737;28;20038;-78
2022/11/26 00:44:50;;;;;;;147.73;69.10;;;7.60;99.90;;;;;;4952498;28;20241;-74
2022/11/26 00:47:16;;;;;;;157.00;72.10;;;7.70;99.90;;;;;;4962925;28;20053;-73
2022/11/26 00:49:43;;;;;;;143.20;64.10;;;7.70;99.90;;;;;;4951916;28;20043;-77
2022/11/26 00:52:32;;;;;;;128.68;59.65;;;7.60;99.90;;;;;;4939855;28;20081;-75
2022/11/26 00:55:15;;;;;;;140.18;63.83;;;7.70;99.90;;;;;;4964174;28;20046;-76
2022/11/26 00:57:42;;;;;;;147.18;67.55;;;7.60;99.90;;;;;;4946750;28;20057;-77
2022/11/26 01:00:20;;;;;;;148.60;69.65;;;7.60;99.90;;;;;;4960835;28;20038;-73
2022/11/26 01:02:47;;;;;;;157.40;68.15;;;7.70;99.90;;;;;;4961597;28;20073;-74
2022/11/26 01:05:15;;;;;;;159.32;67.78;;;7.70;99.90;;;;;;4941182;28;20042;-76
2022/11/26 01:07:42;;;;;;;158.75;67.57;;;7.70;99.90;;;;;;4945927;28;20522;-77
2022/11/26 01:10:17;;;;;;;150.48;70.22;;;7.70;99.90;;;;;;4954984;28;20133;-74
2022/11/26 01:12:44;;;;;;;156.90;70.57;;;7.70;99.90;;;;;;4959217;28;20050;-75
2022/11/26 01:15:12;;;;;;;165.95;69.03;;;7.60;99.90;;;;;;4944355;28;20416;-77
2022/11/26 01:17:39;;;;;;;154.05;70.78;;;7.70;99.90;;;;;;4969591;28;20575;-77
2022/11/26 01:20:22;;;;;;;146.18;62.10;;;7.60;99.90;;;;;;4946136;28;20054;-77
2022/11/26 01:22:53;;;;;;;153.65;66.32;;;7.60;99.90;;;;;;4957402;28;20428;-73
2022/11/26 01:25:21;;;;;;;145.20;62.60;;;7.60;99.90;;;;;;4956581;28;20529;-76
2022/11/26 01:27:48;;;;;;;167.88;65.70;;;7.60;99.90;;;;;;4967207;28;20486;-73
2022/11/26 01:30:28;;;;;;;168.18;67.32;;;7.60;99.90;;;;;;4957267;28;20154;-75
2022/11/26 01:32:55;;;;;;;153.35;63.97;;;7.60;99.90;;;;;;4949050;28;20051;-75
2022/11/26 01:35:22;;;;;;;155.45;63.47;;;7.60;99.90;;;;;;4958674;28;20504;-73
2022/11/26 01:37:49;;;;;;;173.55;70.82;;;7.50;99.90;;;;;;4963645;28;20051;-74
2022/11/26 01:40:45;;;;;;;154.52;65.35;;;7.50;99.90;;;;;;4961023;28;20475;-73
2022/11/26 01:43:38;;;;;;;155.35;65.85;;;7.50;99.90;;;;;;4958407;28;20042;-73
2022/11/26 01:46:13;;;;;;;165.13;68.45;;;7.50;99.90;;;;;;4948647;28;20407;-77
2022/11/26 01:48:40;;;;;;;166.15;69.38;;;7.50;99.90;;;;;;4971416;28;20039;-73
2022/11/26 01:51:11;;;;;;;190.15;70.65;;;7.50;99.90;;;;;;4964374;28;20169;-76
2022/11/26 01:53:42;;;;;;;179.15;68.55;;;7.50;99.90;;;;;;4953973;28;20061;-77
2022/11/26 01:56:18;;;;;;;174.98;67.30;;;7.50;99.90;;;;;;4959614;28;20055;-74
2022/11/26 01:58:53;;;;;;;178.52;71.78;;;7.50;99.90;;;;;;4957527;28;20134;-75
2022/11/26 02:01:20;;;;;;;189.30;73.72;;;7.50;99.90;;;;;;4935528;28;20071;-75
2022/11/26 02:03:51;;;;;;;196.30;70.63;;;7.50;99.90;;;;;;4949884;28;20060;-75
2022/11/26 02:06:23;;;;;;;200.55;75.40;;;7.40;99.90;;;;;;4961692;28;20305;-74
2022/11/26 02:08:50;;;;;;;195.50;74.28;;;7.40;99.90;;;;;;4951433;28;20354;-78
2022/11/26 02:11:19;;;;;;;217.13;79.50;;;7.40;99.90;;;;;;4934149;28;20030;-74
2022/11/26 02:13:50;;;;;;;213.30;80.35;;;7.40;99.90;;;;;;4941929;28;20130;-73
2022/11/26 02:16:36;;;;;;;216.07;80.68;;;7.40;99.90;;;;;;4961471;28;20133;-74
2022/11/26 02:19:22;;;;;;;209.48;80.18;;;7.40;99.90;;;;;;4949114;28;20057;-76
2022/11/26 02:21:59;;;;;;;207.30;79.38;;;7.40;99.90;;;;;;4932953;28;20306;-76
2022/11/26 02:24:48;;;;;;;192.02;75.30;;;7.40;99.90;;;;;;4944731;28;20110;-76
2022/11/26 02:27:26;;;;;;;205.98;81.32;;;7.40;99.90;;;;;;4957314;28;20712;-75
2022/11/26 02:30:04;;;;;;;191.93;78.47;;;7.40;99.90;;;;;;4949676;28;20049;-75
2022/11/26 02:32:42;;;;;;;210.30;80.30;;;7.40;99.90;;;;;;4956644;28;20318;-74
2022/11/26 02:35:28;;;;;;;183.52;77.30;;;7.40;99.90;;;;;;4938802;28;20054;-79
2022/11/26 02:38:08;;;;;;;174.50;72.43;;;7.40;99.90;;;;;;4953663;28;20065;-76
2022/11/26 02:40:35;;;;;;;174.00;69.47;;;7.40;99.90;;;;;;4963911;28;20066;-76
2022/11/26 02:43:02;;;;;;;191.57;73.93;;;7.40;99.90;;;;;;4954216;28;20058;-76
2022/11/26 02:45:37;;;;;;;186.38;77.72;;;7.40;99.90;;;;;;4957596;28;20038;-74
2022/11/26 02:48:10;;;;;;;192.35;76.57;;;7.40;99.90;;;;;;4949010;28;20058;-75
2022/11/26 02:50:43;;;;;;;200.13;77.57;;;7.40;99.90;;;;;;4956099;28;20484;-80
2022/11/26 02:53:13;;;;;;;157.43;70.15;;;7.30;99.90;;;;;;5022462;23;20056;-74
2022/11/26 02:55:46;;;;;;;147.02;64.05;;;7.30;99.90;;;;;;5003951;28;20129;-74
2022/11/26 02:58:13;;;;;;;164.25;67.18;;;7.30;99.90;;;;;;5006708;28;20435;-74
2022/11/26 03:00:41;;;;;;;158.82;63.97;;;7.30;99.90;;;;;;5001602;28;20440;-74
2022/11/26 03:03:22;;;;;;;151.50;64.57;;;7.40;99.90;;;;;;5011426;28;20160;-74
2022/11/26 03:05:53;;;;;;;147.98;60.03;;;7.40;99.90;;;;;;5015500;28;20045;-74
2022/11/26 03:08:20;;;;;;;136.23;57.03;;;7.30;99.90;;;;;;5015298;28;20766;-74
2022/11/26 03:10:47;;;;;;;140.68;56.63;;;7.30;99.90;;;;;;5002397;28;20092;-74
2022/11/26 03:13:13;;;;;;;127.63;54.90;;;7.30;99.90;;;;;;4999164;28;20274;-74
2022/11/26 03:15:40;;;;;;;128.35;53.42;;;7.30;99.90;;;;;;5020620;28;20467;-73
2022/11/26 03:18:07;;;;;;;144.95;54.42;;;7.20;99.90;;;;;;4998357;28;20053;-73
2022/11/26 03:20:33;;;;;;;118.32;54.58;;;7.30;99.90;;;;;;4995665;28;20056;-73
2022/11/26 03:23:00;;;;;;;121.72;51.63;;;7.20;99.90;;;;;;5019622;28;20041;-73
2022/11/26 03:25:27;;;;;;;131.38;50.65;;;7.20;99.90;;;;;;5015184;28;20041;-73
2022/11/26 03:27:54;;;;;;;136.38;54.72;;;7.20;99.90;;;;;;5002797;28;20040;-73
2022/11/26 03:30:21;;;;;;;133.55;51.28;;;7.20;99.90;;;;;;5012226;28;20046;-73
2022/11/26 03:32:48;;;;;;;121.57;51.05;;;7.20;99.90;;;;;;5001454;28;20041;-73
2022/11/26 03:35:15;;;;;;;134.65;55.15;;;7.20;99.90;;;;;;4994430;28;20049;-73
2022/11/26 03:37:41;;;;;;;127.18;52.50;;;7.20;99.90;;;;;;5001790;28;20050;-73
2022/11/26 03:40:08;;;;;;;128.85;53.08;;;7.20;99.90;;;;;;5000564;28;20057;-73
2022/11/26 03:42:36;;;;;;;151.35;56.28;;;7.20;99.90;;;;;;5013647;28;20423;-73
2022/11/26 03:45:03;;;;;;;140.48;58.42;;;7.20;99.90;;;;;;5017504;28;20282;-73
2022/11/26 03:47:29;;;;;;;156.07;59.10;;;7.20;99.90;;;;;;5000561;28;20033;-73
2022/11/26 03:49:56;;;;;;;142.77;53.58;;;7.20;99.90;;;;;;5019298;28;20044;-73
2022/11/26 03:52:22;;;;;;;138.65;55.83;;;7.20;99.90;;;;;;5014842;28;20038;-73
2022/11/26 03:54:49;;;;;;;126.60;53.63;;;7.20;99.90;;;;;;5000730;28;20056;-73
2022/11/26 03:57:16;;;;;;;143.80;55.47;;;7.20;99.90;;;;;;4998004;28;20053;-73
2022/11/26 03:59:42;;;;;;;142.00;54.42;;;7.30;99.90;;;;;;5002808;28;20041;-73
2022/11/26 04:02:09;;;;;;;154.48;56.30;;;7.30;99.90;;;;;;5011474;28;20037;-73
2022/11/26 04:04:36;;;;;;;138.25;53.08;;;7.30;99.90;;;;;;5015791;28;20044;-73
2022/11/26 04:07:03;;;;;;;134.02;55.65;;;7.30;99.90;;;;;;5013604;28;20037;-73
2022/11/26 04:09:30;;;;;;;138.65;54.05;;;7.30;99.90;;;;;;4998346;28;20053;-73
2022/11/26 04:11:57;;;;;;;148.55;53.45;;;7.30;99.90;;;;;;5012258;28;20047;-73
2022/11/26 04:14:23;;;;;;;138.80;57.38;;;7.30;99.90;;;;;;5014710;28;20048;-73
2022/11/26 04:16:50;;;;;;;133.77;55.67;;;7.30;99.90;;;;;;5014423;28;20165;-73
2022/11/26 04:19:17;;;;;;;135.55;52.75;;;7.40;99.90;;;;;;4997196;28;20111;-73
2022/11/26 04:21:43;;;;;;;137.30;54.05;;;7.40;99.90;;;;;;5015036;28;20053;-73
2022/11/26 04:24:10;;;;;;;128.68;55.35;;;7.30;99.90;;;;;;5014596;28;20057;-73
2022/11/26 04:26:37;;;;;;;131.05;54.72;;;7.40;99.90;;;;;;5015469;28;20550;-73
2022/11/26 04:29:04;;;;;;;137.65;53.08;;;7.40;99.90;;;;;;5017093;28;20056;-73
2022/11/26 04:31:31;;;;;;;131.40;53.35;;;7.30;99.90;;;;;;5015513;28;20037;-73
2022/11/26 04:33:57;;;;;;;144.27;55.33;;;7.30;99.90;;;;;;4984284;28;20052;-73
2022/11/26 04:36:24;;;;;;;145.50;55.95;;;7.30;99.90;;;;;;5015935;28;20049;-73
2022/11/26 04:38:51;;;;;;;148.05;53.95;;;7.30;99.90;;;;;;5002417;28;20041;-73
2022/11/26 04:41:17;;;;;;;134.15;53.55;;;7.30;99.90;;;;;;5008533;28;20045;-73
2022/11/26 04:43:44;;;;;;;138.45;58.67;;;7.40;99.90;;;;;;4999895;28;20060;-73
2022/11/26 04:46:10;;;;;;;144.98;55.35;;;7.40;99.90;;;;;;5017361;28;20037;-73
2022/11/26 04:48:37;;;;;;;147.23;57.38;;;7.40;99.90;;;;;;4998920;28;20041;-73
2022/11/26 04:51:04;;;;;;;146.68;55.92;;;7.40;99.90;;;;;;4999774;28;20131;-73
2022/11/26 04:53:31;;;;;;;151.20;58.22;;;7.40;99.90;;;;;;5017434;28;20558;-73
2022/11/26 04:55:57;;;;;;;149.07;55.08;;;7.40;99.90;;;;;;5011106;28;20056;-73
2022/11/26 04:58:24;;;;;;;139.90;54.67;;;7.40;99.90;;;;;;5009222;28;20045;-73
2022/11/26 05:00:51;;;;;;;145.38;51.90;;;7.40;99.90;;;;;;5013655;28;20048;-73
2022/11/26 05:03:18;;;;;;;141.30;53.85;;;7.50;99.90;;;;;;4994191;28;20095;-73
2022/11/26 05:05:46;;;;;;;125.85;49.90;;;7.50;99.90;;;;;;5017930;28;20301;-73
2022/11/26 05:08:12;;;;;;;133.75;49.13;;;7.40;99.90;;;;;;4996651;28;20068;-73
2022/11/26 05:10:39;;;;;;;108.50;45.05;;;7.30;99.90;;;;;;4999268;28;20307;-73
2022/11/26 05:13:06;;;;;;;109.13;44.30;;;7.30;99.90;;;;;;4995501;28;20060;-73
2022/11/26 05:15:32;;;;;;;109.78;44.20;;;7.30;99.90;;;;;;5009332;28;20414;-73
2022/11/26 05:17:59;;;;;;;102.68;41.20;;;7.30;99.90;;;;;;5017165;28;20045;-73
2022/11/26 05:20:26;;;;;;;106.38;41.55;;;7.30;99.90;;;;;;5015723;28;20583;-73
2022/11/26 05:22:52;;;;;;;110.13;41.42;;;7.30;99.90;;;;;;4999029;28;20373;-73
2022/11/26 05:25:19;;;;;;;110.30;43.67;;;7.30;99.90;;;;;;5013425;28;20037;-73
2022/11/26 05:27:45;;;;;;;102.00;41.63;;;7.30;99.90;;;;;;5017557;28;20037;-73
2022/11/26 05:30:13;;;;;;;112.47;41.15;;;7.30;99.90;;;;;;4989598;28;20499;-73
2022/11/26 05:32:39;;;;;;;105.18;40.15;;;7.30;99.90;;;;;;4998306;28;20499;-73
2022/11/26 05:35:06;;;;;;;88.45;39.53;;;7.30;99.90;;;;;;5012324;28;20084;-73
2022/11/26 05:37:33;;;;;;;94.07;39.10;;;7.30;99.90;;;;;;5008884;28;20045;-73
2022/11/26 05:40:00;;;;;;;100.20;37.97;;;7.30;99.90;;;;;;4994580;28;20045;-73
2022/11/26 05:42:26;;;;;;;89.75;35.28;;;7.30;99.90;;;;;;4993756;28;20254;-73
2022/11/26 05:44:53;;;;;;;84.38;35.83;;;7.30;99.90;;;;;;5017456;28;20121;-73
2022/11/26 05:47:20;;;;;;;89.32;38.08;;;7.30;99.90;;;;;;4996012;28;20037;-73
2022/11/26 05:49:46;;;;;;;90.55;37.25;;;7.30;99.90;;;;;;5007898;28;20148;-73
2022/11/26 05:52:13;;;;;;;94.90;35.63;;;7.30;99.90;;;;;;5012935;28;20053;-73
2022/11/26 05:54:39;;;;;;;86.63;35.30;;;7.30;99.90;;;;;;4996931;28;20526;-73
2022/11/26 05:57:07;;;;;;;89.40;35.78;;;7.30;99.90;;;;;;5016021;28;20049;-73
2022/11/26 05:59:33;;;;;;;97.82;35.17;;;7.30;99.90;;;;;;4999062;28;20068;-73
2022/11/26 06:02:00;;;;;;;85.68;33.05;;;7.30;99.90;;;;;;5017133;28;20041;-73
2022/11/26 06:04:28;;;;;;;89.45;33.13;;;7.30;99.90;;;;;;5009609;28;20033;-73
2022/11/26 06:06:54;;;;;;;96.20;34.25;;;7.40;99.90;;;;;;5011923;28;20037;-73
2022/11/26 06:09:21;;;;;;;84.95;32.80;;;7.30;99.90;;;;;;5012776;28;20484;-73
2022/11/26 06:11:49;;;;;;;79.25;32.30;;;7.30;99.90;;;;;;4998777;28;20056;-73
2022/11/26 06:14:17;;;;;;;77.70;33.42;;;7.30;99.90;;;;;;5014677;28;20057;-73
2022/11/26 06:16:43;;;;;;;83.28;31.55;;;7.40;99.90;;;;;;4999263;28;20043;-73
2022/11/26 06:19:11;;;;;;;72.97;32.25;;;7.30;99.90;;;;;;4991994;28;20104;-73
2022/11/26 06:21:38;;;;;;;89.80;31.92;;;7.30;99.90;;;;;;5014734;28;20041;-73
2022/11/26 06:24:05;;;;;;;77.30;28.40;;;7.30;99.90;;;;;;5006399;28;20130;-73
2022/11/26 06:26:32;;;;;;;72.32;29.35;;;7.40;99.90;;;;;;5005674;28;20575;-73
2022/11/26 06:28:58;;;;;;;72.75;29.48;;;7.30;99.90;;;;;;5017537;28;20128;-73
2022/11/26 06:31:25;;;;;;;63.70;29.55;;;7.40;99.90;;;;;;4992996;28;20029;-73
2022/11/26 06:33:54;;;;;;;63.00;28.50;;;7.40;99.90;;;;;;5000244;28;20128;-73
2022/11/26 06:36:21;;;;;;;77.57;31.42;;;7.40;99.90;;;;;;5012530;28;20054;-73
2022/11/26 06:38:48;;;;;;;73.07;30.13;;;7.40;99.90;;;;;;4991547;28;20049;-73
2022/11/26 06:41:15;;;;;;;76.88;29.73;;;7.40;99.90;;;;;;5014740;28;20045;-73
2022/11/26 06:43:42;;;;;;;79.57;30.75;;;7.40;99.90;;;;;;5003887;28;20127;-73
2022/11/26 06:46:10;;;;;;;82.43;33.83;;;7.30;99.90;;;;;;5018769;28;20045;-73
2022/11/26 06:48:37;;;;;;;70.80;28.80;;;7.30;99.90;;;;;;5017558;28;20038;-73
2022/11/26 06:51:09;;;;;;;69.38;29.75;;;7.30;99.90;;;;;;5008064;28;20046;-73
2022/11/26 06:53:36;;;;;;;57.47;26.98;;;7.30;99.90;;;;;;5001889;28;20045;-73
2022/11/26 06:56:05;;;;;;;56.25;26.60;;;7.30;99.90;;;;;;5015105;28;20522;-73
2022/11/26 06:58:31;;;;;;;61.85;25.02;;;7.30;99.90;;;;;;5015780;28;20042;-73
2022/11/26 07:00:58;;;;;;;60.75;24.35;;;7.20;99.90;;;;;;5002291;28;20046;-73
2022/11/26 07:03:25;;;;;;;63.80;24.88;;;7.20;99.90;;;;;;5008417;28;20053;-73
2022/11/26 07:05:58;;;;;;;72.10;23.75;;;7.10;99.90;;;;;;5020868;28;20037;-73
2022/11/26 07:08:25;;;;;;;56.97;23.25;;;7.10;99.90;;;;;;5017930;28;20045;-73
2022/11/26 07:10:52;;;;;;;68.20;25.70;;;7.10;99.90;;;;;;5020551;28;20033;-73
2022/11/26 07:13:18;;;;;;;56.53;23.42;;;7.10;99.90;;;;;;5013655;28;20042;-73
2022/11/26 07:15:45;;;;;;;56.55;24.27;;;7.10;99.90;;;;;;5002962;28;20041;-73
2022/11/26 07:18:12;;;;;;;59.92;23.88;;;7.10;99.90;;;;;;5019238;28;20537;-73
2022/11/26 07:20:38;;;;;;;67.78;24.40;;;7.20;99.90;;;;;;5018936;28;20049;-73
2022/11/26 07:23:05;;;;;;;57.90;21.42;;;7.20;99.90;;;;;;5019677;28;20574;-73
2022/11/26 07:25:32;;;;;;;66.22;24.10;;;7.20;99.90;;;;;;4982921;28;20206;-73
2022/11/26 07:27:58;;;;;;;50.40;22.50;;;7.10;99.90;;;;;;5018288;28;20084;-73
2022/11/26 07:30:25;;;;;;;51.17;22.67;;;7.20;99.90;;;;;;5003786;28;20480;-73
2022/11/26 07:32:51;;;;;;;59.72;25.42;;;7.20;99.90;;;;;;5013242;28;20050;-73
2022/11/26 07:35:18;;;;;;;62.17;23.15;;;7.20;99.90;;;;;;5016857;28;20045;-73
2022/11/26 07:37:45;;;;;;;50.15;24.48;;;7.20;99.90;;;;;;5009646;28;20037;-73
2022/11/26 07:40:12;;;;;;;54.40;24.88;;;7.20;99.90;;;;;;5018883;28;20038;-73
2022/11/26 07:42:38;;;;;;;62.15;26.17;;;7.20;99.90;;;;;;5013526;28;20337;-73
2022/11/26 07:45:06;;;;;;;62.92;27.38;;;7.10;99.90;;;;;;5012762;28;20053;-73
2022/11/26 07:47:32;;;;;;;61.08;27.13;;;7.20;99.90;;;;;;5012586;28;20048;-74
2022/11/26 07:49:59;;;;;;;62.58;27.30;;;7.30;99.90;;;;;;5017020;28;20645;-73
2022/11/26 07:52:25;;;;;;;53.95;24.13;;;7.30;99.90;;;;;;5009488;28;20034;-73
2022/11/26 07:54:52;;;;;;;50.33;24.15;;;7.30;99.90;;;;;;5000630;28;20046;-73
2022/11/26 07:57:21;;;;;;;52.38;26.38;;;7.30;99.90;;;;;;4999593;28;20046;-73
2022/11/26 07:59:47;;;;;;;58.35;25.70;;;7.30;99.90;;;;;;5013732;28;20639;-73
2022/11/26 08:02:14;;;;;;;64.95;24.48;;;7.30;99.90;;;;;;5016178;28;20034;-73
2022/11/26 08:04:41;;;;;;;53.67;27.05;;;7.30;99.90;;;;;;5012699;28;20049;-73
2022/11/26 08:07:08;;;;;;;42.97;22.83;;;7.40;99.90;;;;;;4999310;28;20507;-73
2022/11/26 08:09:35;;;;;;;50.58;22.25;;;7.30;99.90;;;;;;4996522;28;20452;-73
2022/11/26 08:12:01;;;;;;;48.28;22.90;;;7.30;99.90;;;;;;5015568;28;20052;-73
2022/11/26 08:14:28;;;;;;;52.28;22.05;;;7.20;99.90;;;;;;5016185;28;20047;-73
2022/11/26 08:16:55;;;;;;;56.55;22.02;;;7.30;99.90;;;;;;5012941;28;20045;-73
2022/11/26 08:19:22;;;;;;;44.45;23.10;;;7.30;99.90;;;;;;5012769;28;20612;-73
2022/11/26 08:21:49;;;;;;;50.72;24.17;;;7.30;99.90;;;;;;5018967;28;20064;-73
2022/11/26 08:24:18;;;;;;;56.13;23.02;;;7.20;99.90;;;;;;5014336;28;20045;-73
2022/11/26 08:26:45;;;;;;;55.53;26.85;;;7.30;99.90;;;;;;5015481;28;20033;-73
2022/11/26 08:29:12;;;;;;;52.78;25.55;;;7.30;99.90;;;;;;4997501;28;20065;-73
2022/11/26 08:31:42;;;;;;;58.63;24.70;;;7.30;99.90;;;;;;5011912;28;20033;-73
2022/11/26 08:34:14;;;;;;;58.88;24.65;;;7.30;99.90;;;;;;5000022;28;20060;-73
2022/11/26 08:36:40;;;;;;;67.85;28.58;;;7.30;99.90;;;;;;5011624;28;20148;-73
2022/11/26 08:39:10;;;;;;;50.63;29.35;;;7.30;99.90;;;;;;5018205;28;20041;-73
2022/11/26 08:41:37;;;;;;;50.15;25.02;;;7.40;99.90;;;;;;4994465;28;20049;-73
2022/11/26 08:44:03;;;;;;;51.75;27.13;;;7.50;99.90;;;;;;5017607;28;20060;-73
2022/11/26 08:46:37;;;;;;;44.83;28.25;;;7.60;99.90;;;;;;5011713;28;20124;-73
2022/11/26 08:49:04;;;;;;;46.60;29.00;;;7.70;99.90;;;;;;5008700;28;20077;-73
2022/11/26 08:51:31;;;;;;;37.95;28.75;;;7.90;99.90;;;;;;5014243;28;20271;-73
2022/11/26 08:53:58;;;;;;;45.97;38.08;;;8.10;99.90;;;;;;5015007;23;20049;-73
2022/11/26 08:56:25;;;;;;;42.70;29.63;;;8.30;99.90;;;;;;4982963;28;20038;-73
2022/11/26 08:58:51;;;;;;;45.75;36.65;;;8.30;99.90;;;;;;4990360;28;20030;-73
2022/11/26 09:01:25;;;;;;;46.60;35.53;;;8.20;99.90;;;;;;4974028;28;20037;-74
2022/11/26 09:03:56;;;;;;;63.53;42.78;;;8.10;99.90;;;;;;4975552;28;20284;-73
2022/11/26 09:06:25;;;;;;;46.45;39.45;;;8.00;99.90;;;;;;4971291;28;20050;-73
2022/11/26 09:11:59;;;;;;;37.28;32.20;;;8.20;99.90;;;;;;4968858;28;20030;-73
2022/11/26 09:14:28;;;;;;;47.58;34.03;;;8.50;99.90;;;;;;4963211;28;20057;-73
2022/11/26 09:16:56;;;;;;;48.65;32.50;;;8.60;99.90;;;;;;4974747;28;20050;-74
2022/11/26 09:19:24;;;;;;;39.97;35.35;;;8.60;99.90;;;;;;4968984;28;21193;-73
2022/11/26 09:21:50;;;;;;;46.13;34.42;;;8.50;99.90;;;;;;4970687;28;20527;-73
2022/11/26 09:24:18;;;;;;;42.58;33.75;;;8.50;99.90;;;;;;4944673;28;20058;-72
2022/11/26 09:26:44;;;;;;;46.67;35.08;;;8.30;99.90;;;;;;4962588;28;20042;-73
2022/11/26 09:29:13;;;;;;;51.80;34.28;;;8.40;99.90;;;;;;4968932;28;20047;-73
2022/11/26 09:31:40;;;;;;;55.90;39.90;;;8.50;99.90;;;;;;4961144;28;20146;-73
2022/11/26 09:34:27;;;;;;;36.88;32.50;;;8.80;99.90;;;;;;4946124;28;20042;-74
2022/11/26 09:36:53;;;;;;;39.25;32.63;;;9.10;99.90;;;;;;4963130;28;20035;-73
2022/11/26 09:39:20;;;;;;;43.50;32.47;;;9.10;99.90;;;;;;4969040;28;20053;-73
2022/11/26 09:42:04;;;;;;;43.20;34.88;;;9.20;99.90;;;;;;4962825;28;20134;-74
2022/11/26 09:44:50;;;;;;;42.75;32.30;;;9.30;99.90;;;;;;4949447;28;20050;-73
2022/11/26 09:47:18;;;;;;;;;;;9.30;99.90;;;;;;4964673;28;20517;-73
2022/11/26 09:50:17;;;;;;;41.38;31.83;;;9.10;99.90;;;;;;4958178;28;19929;-73
2022/11/26 09:52:53;;;;;;;37.03;32.53;;;8.90;99.90;;;;;;4943671;28;20433;-73
2022/11/26 09:55:30;;;;;;;47.92;29.70;;;8.80;99.90;;;;;;4968448;28;20057;-73
2022/11/26 09:58:24;;;;;;;44.85;28.48;;;8.70;99.90;;;;;;4957034;28;20516;-73
2022/11/26 10:00:56;;;;;;;35.63;27.08;;;8.80;99.90;;;;;;4966011;28;20157;-73
2022/11/26 10:03:34;;;;;;;32.33;26.25;;;8.70;99.90;;;;;;4967389;28;20116;-72
2022/11/26 10:06:35;;;;;;;34.97;26.90;;;8.70;99.90;;;;;;4959251;28;20043;-73
2022/11/26 10:09:10;;;;;;;44.65;28.10;;;8.80;99.90;;;;;;4964760;28;20046;-73
2022/11/26 10:12:13;;;;;;;32.90;28.65;;;9.10;99.90;;;;;;4974194;28;20038;-73
2022/11/26 10:15:00;;;;;;;47.70;29.95;;;9.40;99.90;;;;;;4963713;28;20444;-73
2022/11/26 10:17:41;;;;;;;36.65;28.77;;;9.50;99.90;;;;;;4969130;28;20038;-73
2022/11/26 10:20:22;;;;;;;33.60;30.17;;;9.70;99.90;;;;;;4966073;28;20051;-73
2022/11/26 10:23:04;;;;;;;38.13;28.88;;;9.70;99.90;;;;;;4959514;28;20055;-73
2022/11/26 10:25:49;;;;;;;33.70;28.90;;;9.70;99.90;;;;;;4966839;28;20678;-74
2022/11/26 10:28:24;;;;;;;34.08;30.45;;;9.60;99.90;;;;;;4964681;28;20073;-73
2022/11/26 10:30:59;;;;;;;46.35;32.17;;;9.80;99.90;;;;;;4940078;28;20039;-74
2022/11/26 10:33:29;;;;;;;;;;;10.00;99.90;;;;;;4959118;28;20300;-73
2022/11/26 10:35:55;;;;;;;34.55;31.33;;;10.10;99.90;;;;;;4966977;28;19922;-73
2022/11/26 10:38:22;;;;;;;42.38;31.67;;;10.10;99.90;;;;;;4973872;28;20442;-73
2022/11/26 10:40:49;;;;;;;34.28;31.10;;;10.10;99.90;;;;;;4973095;28;20039;-73
2022/11/26 10:43:23;;;;;;;35.42;30.40;;;10.10;99.90;;;;;;4950747;28;20066;-73
2022/11/26 10:45:54;;;;;;;34.83;30.73;;;10.20;99.90;;;;;;4965172;28;20046;-73
2022/11/26 10:48:29;;;;;;;34.05;30.70;;;10.20;99.90;;;;;;4967026;28;20153;-72
2022/11/26 10:51:05;;;;;;;34.05;30.98;;;10.30;99.90;;;;;;4955953;28;20691;-73
2022/11/26 10:53:54;;;;;;;33.60;30.17;;;10.50;99.90;;;;;;4948088;28;20436;-73
2022/11/26 10:56:27;;;;;;;33.38;29.45;;;10.60;99.90;;;;;;4963380;28;20541;-73
2022/11/26 10:59:01;;;;;;;34.75;31.23;;;10.70;99.90;;;;;;4967178;28;20042;-73
2022/11/26 11:01:35;;;;;;;32.80;29.25;;;10.70;99.90;;;;;;4966837;28;20051;-74
2022/11/26 11:04:26;;;;;;;33.20;29.85;;;10.70;99.90;;;;;;4966303;28;20113;-73
2022/11/26 11:06:53;;;;;;;35.08;31.35;;;10.70;99.90;;;;;;4960479;28;20038;-74
2022/11/26 11:09:30;;;;;;;35.00;30.75;;;10.70;99.90;;;;;;4963279;28;20687;-74
2022/11/26 11:12:17;;;;;;;36.83;30.58;;;10.60;99.90;;;;;;4975480;28;20053;-74
2022/11/26 11:14:45;;;;;;;38.47;34.28;;;10.70;99.90;;;;;;4965258;28;20057;-74
2022/11/26 11:17:27;;;;;;;35.53;32.67;;;10.80;99.90;;;;;;4972276;28;20040;-74
2022/11/26 11:19:56;;;;;;;38.72;35.17;;;10.80;99.90;;;;;;4963054;28;20053;-73
2022/11/26 11:22:23;;;;;;;35.92;32.60;;;10.80;99.90;;;;;;4964347;28;20046;-73
2022/11/26 11:24:50;;;;;;;40.53;37.17;;;10.70;99.90;;;;;;4963999;28;20617;-73
2022/11/26 11:27:39;;;;;;;40.67;36.83;;;10.60;99.90;;;;;;4966721;28;20126;-73
2022/11/26 11:30:22;;;;;;;42.92;38.20;;;10.40;99.90;;;;;;4966133;28;20509;-73
2022/11/26 11:32:49;;;;;;;40.05;36.05;;;10.30;99.90;;;;;;4964458;28;20516;-73
2022/11/26 11:35:26;;;;;;;40.47;36.03;;;10.30;99.90;;;;;;4971248;28;20066;-73
2022/11/26 11:37:54;;;;;;;39.95;36.28;;;10.20;99.90;;;;;;4978814;28;20054;-73
2022/11/26 11:40:26;;;;;;;39.88;36.67;;;10.30;99.90;;;;;;4951471;28;20333;-73
2022/11/26 11:43:05;;;;;;;41.65;37.75;;;10.50;99.90;;;;;;4975043;28;20429;-74
2022/11/26 11:45:35;;;;;;;39.33;35.45;;;10.60;99.90;;;;;;4948716;28;20046;-74
2022/11/26 11:48:42;;;;;;;37.97;34.58;;;10.70;99.90;;;;;;4964343;28;20105;-73
2022/11/26 11:51:18;;;;;;;39.58;35.90;;;10.70;99.90;;;;;;4966503;28;20046;-73
2022/11/26 11:54:13;;;;;;;38.13;34.20;;;10.50;99.90;;;;;;4967000;28;20050;-73
2022/11/26 11:57:15;;;;;;;37.92;33.15;;;10.70;99.90;;;;;;4971364;28;20063;-73
2022/11/26 12:00:09;;;;;;;36.05;32.08;;;10.70;99.90;;;;;;4946250;28;20069;-73
2022/11/26 12:03:03;;;;;;;35.35;31.13;;;10.90;99.90;;;;;;4973652;28;20069;-74
2022/11/26 12:05:50;;;;;;;35.83;32.08;;;10.80;99.90;;;;;;4966750;28;20057;-74
2022/11/26 12:08:52;;;;;;;39.17;34.97;;;10.90;99.90;;;;;;4968263;28;20053;-73
2022/11/26 12:11:33;;;;;;;38.38;34.25;;;10.90;99.90;;;;;;4911485;29;20139;-73
2022/11/26 12:14:11;;;;;;;36.15;33.00;;;11.10;99.90;;;;;;4967193;28;20291;-73
2022/11/26 12:16:42;;;;;;;33.42;30.05;;;11.00;99.90;;;;;;4966803;28;20564;-73
2022/11/26 12:19:24;;;;;;;40.15;35.90;;;10.80;99.90;;;;;;4970644;28;20484;-73
2022/11/26 12:21:59;;;;;;;40.30;36.25;;;10.80;99.90;;;;;;4971827;28;20504;-73
2022/11/26 12:24:46;;;;;;;40.42;36.10;;;10.70;99.90;;;;;;4973745;28;20045;-73
2022/11/26 12:27:29;;;;;;;40.17;36.30;;;10.70;99.90;;;;;;4968296;28;20310;-73
2022/11/26 12:30:04;;;;;;;39.55;35.58;;;10.70;99.90;;;;;;4956666;28;20052;-73
2022/11/26 12:32:39;;;;;;;36.17;32.22;;;10.60;99.90;;;;;;4963658;28;20428;-73
2022/11/26 12:35:28;;;;;;;36.53;32.75;;;10.60;99.90;;;;;;4976882;28;20050;-73
2022/11/26 12:38:20;;;;;;;35.35;31.75;;;10.50;99.90;;;;;;4969750;28;20587;-73
2022/11/26 12:41:15;;;;;;;35.63;32.10;;;10.40;99.90;;;;;;4967249;28;20049;-73
2022/11/26 12:43:58;;;;;;;;;;;10.30;99.90;;;;;;4968250;28;20153;-73
2022/11/26 12:46:59;;;;;;;33.50;29.98;;;10.30;99.90;;;;;;4969974;28;19928;-73
2022/11/26 12:49:36;;;;;;;33.38;29.05;;;10.20;99.90;;;;;;4960098;28;20057;-73
2022/11/26 12:52:12;;;;;;;35.78;30.30;;;10.10;99.90;;;;;;4972219;28;20074;-73
2022/11/26 12:54:50;;;;;;;36.10;30.23;;;10.00;99.90;;;;;;4968484;28;20077;-73
2022/11/26 12:57:23;;;;;;;35.92;30.13;;;10.00;99.90;;;;;;4974751;28;20135;-73